createdAt,value
2023-02-26T00:01:33.141Z,76637.50
2023-02-26T00:04:03.260Z,76649.66
2023-02-26T00:06:33.857Z,76653.72
2023-02-26T00:09:01.878Z,76653.72
2023-02-26T00:11:29.273Z,76661.81
2023-02-26T00:13:57.323Z,76673.97
2023-02-26T00:16:29.679Z,76686.13
2023-02-26T00:18:59.545Z,76698.31
2023-02-26T00:21:27.795Z,76702.34
2023-02-26T00:23:55.822Z,76722.63
2023-02-26T00:26:26.416Z,76730.75
2023-02-26T00:28:54.662Z,76742.91
2023-02-26T00:31:24.918Z,76751.00
2023-02-26T00:33:54.398Z,76767.22
2023-02-26T00:36:23.762Z,76771.28
2023-02-26T00:39:19.231Z,76759.13
2023-02-26T00:41:46.821Z,76767.22
2023-02-26T00:44:14.443Z,76765.19
2023-02-26T00:46:47.501Z,76773.31
2023-02-26T00:49:52.182Z,76759.13
2023-02-26T00:52:39.577Z,76779.38
2023-02-26T00:55:07.036Z,76767.22
2023-02-26T00:57:34.080Z,76779.38
2023-02-26T01:00:01.960Z,76781.41
2023-02-26T01:02:29.378Z,76783.44
2023-02-26T01:04:57.757Z,76781.41
2023-02-26T01:07:25.182Z,76783.44
2023-02-26T01:09:53.005Z,76779.38
2023-02-26T01:12:20.366Z,76791.56
2023-02-26T01:14:48.461Z,76787.50
2023-02-26T01:17:29.519Z,76787.50
2023-02-26T01:20:23.562Z,76797.63
2023-02-26T01:23:03.923Z,76797.63
2023-02-26T01:25:54.851Z,76805.75
2023-02-26T01:28:22.523Z,76815.88
2023-02-26T01:30:53.179Z,76815.88
2023-02-26T01:33:31.936Z,76815.88
2023-02-26T01:36:10.243Z,76824.00
2023-02-26T01:38:51.868Z,76828.03
2023-02-26T01:41:33.649Z,76840.22
2023-02-26T01:44:08.706Z,76844.25
2023-02-26T01:47:01.979Z,76856.44
2023-02-26T01:49:29.909Z,76848.31
2023-02-26T01:51:59.739Z,76860.47
2023-02-26T01:54:38.527Z,76860.47
2023-02-26T01:57:10.193Z,76872.66
2023-02-26T01:59:41.593Z,76882.78
2023-02-26T02:02:11.708Z,76868.59
2023-02-26T02:04:40.643Z,76880.75
2023-02-26T02:07:08.186Z,76888.88
2023-02-26T02:09:35.873Z,76896.97
2023-02-26T02:12:03.132Z,76896.97
2023-02-26T02:14:43.808Z,76901.03
2023-02-26T02:17:23.487Z,76905.09
2023-02-26T02:19:53.311Z,76907.09
2023-02-26T02:22:45.248Z,76901.03
2023-02-26T02:25:30.995Z,76909.13
2023-02-26T02:28:02.963Z,76915.22
2023-02-26T02:30:38.714Z,76921.31
2023-02-26T02:33:19.937Z,76915.22
2023-02-26T02:36:01.799Z,76913.19
2023-02-26T02:38:54.251Z,76921.31
2023-02-26T02:41:35.341Z,76937.53
2023-02-26T02:44:09.120Z,76929.41
2023-02-26T02:46:41.230Z,76937.53
2023-02-26T02:49:32.461Z,76933.47
2023-02-26T02:52:02.849Z,76945.63
2023-02-26T02:54:43.359Z,76941.56
2023-02-26T02:57:29.439Z,76947.66
2023-02-26T03:00:05.710Z,76949.69
2023-02-26T03:02:52.845Z,76953.75
2023-02-26T03:05:20.667Z,76953.75
2023-02-26T03:07:56.696Z,76961.84
2023-02-26T03:10:24.382Z,76965.91
2023-02-26T03:12:51.339Z,76965.91
2023-02-26T03:15:28.620Z,76982.13
2023-02-26T03:18:06.550Z,76982.13
2023-02-26T03:20:39.556Z,76990.22
2023-02-26T03:23:20.187Z,76992.25
2023-02-26T03:25:55.040Z,76998.34
2023-02-26T03:28:31.700Z,77002.41
2023-02-26T03:31:26.578Z,77006.44
2023-02-26T03:34:07.299Z,77006.44
2023-02-26T03:36:42.414Z,76998.34
2023-02-26T03:39:33.581Z,77010.50
2023-02-26T03:42:09.411Z,77002.41
2023-02-26T03:44:56.084Z,77010.50
2023-02-26T03:47:25.385Z,77006.44
2023-02-26T03:50:02.331Z,77018.63
2023-02-26T03:52:37.336Z,77022.66
2023-02-26T03:55:24.044Z,77024.69
2023-02-26T03:58:03.601Z,77022.66
2023-02-26T04:00:43.091Z,77030.78
2023-02-26T04:03:21.759Z,77032.81
2023-02-26T04:05:50.820Z,77030.78
2023-02-26T04:08:21.830Z,77032.81
2023-02-26T04:10:54.444Z,77042.94
2023-02-26T04:13:22.574Z,77051.06
2023-02-26T04:15:50.457Z,77055.09
2023-02-26T04:18:18.001Z,77047.00
2023-02-26T04:20:44.884Z,77047.00
2023-02-26T04:23:12.439Z,77055.09
2023-02-26T04:25:39.832Z,77160.53
2023-02-26T04:28:08.123Z,77065.25
2023-02-26T04:30:35.569Z,77071.31
2023-02-26T04:33:04.659Z,77063.22
2023-02-26T04:35:31.967Z,77057.13
2023-02-26T04:37:59.389Z,77061.19
2023-02-26T04:40:27.777Z,77069.28
2023-02-26T04:42:55.213Z,77071.31
2023-02-26T04:45:25.578Z,77071.31
2023-02-26T04:47:53.770Z,77075.38
2023-02-26T04:50:20.824Z,77087.53
2023-02-26T04:52:52.281Z,77079.44
2023-02-26T04:55:19.397Z,77087.53
2023-02-26T04:57:47.093Z,77095.66
2023-02-26T05:00:15.481Z,77097.69
2023-02-26T05:02:42.858Z,77103.75
2023-02-26T05:05:10.135Z,77107.81
2023-02-26T05:07:37.815Z,77119.97
2023-02-26T05:10:06.998Z,77124.03
2023-02-26T05:12:34.253Z,77128.09
2023-02-26T05:15:01.565Z,77136.19
2023-02-26T05:17:28.868Z,77144.31
2023-02-26T05:19:56.225Z,77148.38
2023-02-26T05:22:24.526Z,77160.53
2023-02-26T05:24:51.459Z,77156.47
2023-02-26T05:27:18.794Z,77172.69
2023-02-26T05:29:47.629Z,77164.59
2023-02-26T05:32:15.572Z,77172.69
2023-02-26T05:34:44.216Z,77180.81
2023-02-26T05:37:11.921Z,77201.06
2023-02-26T05:39:41.464Z,77192.97
2023-02-26T05:42:09.335Z,77188.91
2023-02-26T05:44:36.516Z,77203.09
2023-02-26T05:47:03.838Z,77188.91
2023-02-26T05:49:30.872Z,77192.97
2023-02-26T05:51:58.194Z,77203.09
2023-02-26T05:54:25.417Z,77201.06
2023-02-26T05:56:53.037Z,77209.19
2023-02-26T05:59:20.590Z,77217.28
2023-02-26T06:01:48.035Z,77217.28
2023-02-26T06:04:15.265Z,77233.53
2023-02-26T06:06:42.475Z,77261.91
2023-02-26T06:09:09.535Z,77282.19
2023-02-26T06:11:38.655Z,77292.31
2023-02-26T06:14:06.024Z,77302.44
2023-02-26T06:16:35.847Z,77310.56
2023-02-26T06:19:03.746Z,77326.78
2023-02-26T06:21:30.973Z,77330.84
2023-02-26T06:23:58.045Z,77338.94
2023-02-26T06:26:25.898Z,77343.00
2023-02-26T06:28:53.481Z,77345.03
2023-02-26T06:31:20.735Z,77351.13
2023-02-26T06:33:47.987Z,77355.16
2023-02-26T06:36:15.140Z,77351.13
2023-02-26T06:38:42.356Z,77351.13
2023-02-26T06:41:09.664Z,77359.22
2023-02-26T06:43:36.845Z,77363.28
2023-02-26T06:46:04.313Z,77369.38
2023-02-26T06:48:31.684Z,77367.34
2023-02-26T06:50:59.001Z,77379.50
2023-02-26T06:53:26.165Z,77385.59
2023-02-26T06:55:53.626Z,77391.66
2023-02-26T06:58:21.425Z,77391.66
2023-02-26T07:00:48.677Z,77395.72
2023-02-26T07:03:17.115Z,77399.78
2023-02-26T07:05:46.578Z,77407.88
2023-02-26T07:08:14.385Z,77403.84
2023-02-26T07:10:43.442Z,77416.00
2023-02-26T07:13:10.895Z,77416.00
2023-02-26T07:15:38.464Z,77411.94
2023-02-26T07:18:05.514Z,77416.00
2023-02-26T07:20:34.303Z,77411.94
2023-02-26T07:23:01.497Z,77395.72
2023-02-26T07:25:29.668Z,77391.66
2023-02-26T07:27:56.828Z,77389.63
2023-02-26T07:30:24.038Z,77385.59
2023-02-26T07:32:50.979Z,77373.41
2023-02-26T07:35:19.011Z,77363.28
2023-02-26T07:37:46.082Z,77367.34
2023-02-26T07:40:14.154Z,77363.28
2023-02-26T07:42:41.194Z,77379.50
2023-02-26T07:45:08.909Z,77397.75
2023-02-26T07:47:35.831Z,77397.75
2023-02-26T07:50:03.837Z,77407.88
2023-02-26T07:52:30.855Z,77420.06
2023-02-26T07:54:58.582Z,77411.94
2023-02-26T07:57:25.555Z,77407.88
2023-02-26T07:59:52.810Z,77411.94
2023-02-26T08:02:19.793Z,77418.03
2023-02-26T08:04:47.195Z,77420.06
2023-02-26T08:07:14.292Z,77424.09
2023-02-26T08:09:41.690Z,77432.22
2023-02-26T08:12:08.618Z,77444.38
2023-02-26T08:14:36.028Z,77444.38
2023-02-26T08:17:03.224Z,77444.38
2023-02-26T08:19:30.701Z,77444.38
2023-02-26T08:21:57.658Z,77440.31
2023-02-26T08:24:25.268Z,77440.31
2023-02-26T08:26:52.336Z,77440.31
2023-02-26T08:29:20.218Z,77432.22
2023-02-26T08:31:47.226Z,77432.22
2023-02-26T08:34:14.836Z,77426.13
2023-02-26T08:36:42.269Z,77424.09
2023-02-26T08:39:10.011Z,77426.13
2023-02-26T08:41:37.089Z,77432.22
2023-02-26T08:44:05.291Z,77432.22
2023-02-26T08:46:32.735Z,77436.28
2023-02-26T08:49:00.691Z,77432.22
2023-02-26T08:51:28.257Z,77446.41
2023-02-26T08:53:57.030Z,77464.66
2023-02-26T08:56:24.552Z,77476.81
2023-02-26T08:58:52.548Z,77476.81
2023-02-26T09:01:19.564Z,77478.84
2023-02-26T09:03:46.730Z,77484.94
2023-02-26T09:06:13.778Z,77493.03
2023-02-26T09:08:40.936Z,77497.09
2023-02-26T09:11:08.151Z,77509.25
2023-02-26T09:13:37.055Z,77507.25
2023-02-26T09:16:04.722Z,77505.22
2023-02-26T09:18:32.254Z,77501.16
2023-02-26T09:20:59.410Z,77503.19
2023-02-26T09:23:27.315Z,77513.31
2023-02-26T09:25:55.527Z,77521.44
2023-02-26T09:28:24.602Z,77543.72
2023-02-26T09:30:53.473Z,77525.47
2023-02-26T09:33:21.947Z,77525.47
2023-02-26T09:35:50.740Z,77521.44
2023-02-26T09:38:18.864Z,77529.53
2023-02-26T09:40:56.575Z,77529.53
2023-02-26T09:43:36.518Z,77525.47
2023-02-26T09:46:30.610Z,77525.47
2023-02-26T09:49:04.093Z,77517.38
2023-02-26T09:51:33.852Z,77533.59
2023-02-26T09:54:08.139Z,77539.69
2023-02-26T09:56:37.082Z,77545.75
2023-02-26T09:59:04.361Z,77533.59
2023-02-26T10:02:01.552Z,77525.47
2023-02-26T10:04:54.675Z,77521.44
2023-02-26T10:07:40.198Z,77513.31
2023-02-26T10:10:16.854Z,77519.41
2023-02-26T10:12:45.313Z,77525.47
2023-02-26T10:15:22.863Z,77533.59
2023-02-26T10:18:19.223Z,77537.66
2023-02-26T10:20:58.955Z,77537.66
2023-02-26T10:23:37.503Z,77541.72
2023-02-26T10:26:12.452Z,77541.72
2023-02-26T10:28:51.684Z,77545.75
2023-02-26T10:31:38.752Z,77553.88
2023-02-26T10:34:38.316Z,77555.91
2023-02-26T10:37:24.527Z,77557.94
2023-02-26T10:40:00.944Z,77566.03
2023-02-26T10:42:38.009Z,77574.16
2023-02-26T10:45:23.510Z,77578.22
2023-02-26T10:48:09.719Z,77590.38
2023-02-26T10:50:39.157Z,77594.44
2023-02-26T10:53:10.069Z,77594.44
2023-02-26T10:55:43.519Z,77592.41
2023-02-26T10:58:16.043Z,77594.44
2023-02-26T11:00:46.542Z,77598.47
2023-02-26T11:03:22.865Z,77588.34
2023-02-26T11:05:50.270Z,77588.34
2023-02-26T11:08:28.110Z,77590.38
2023-02-26T11:10:58.049Z,77582.25
2023-02-26T11:13:30.682Z,77570.09
2023-02-26T11:16:01.245Z,77555.91
2023-02-26T11:18:36.693Z,77549.81
2023-02-26T11:21:06.338Z,77535.63
2023-02-26T11:23:34.423Z,77529.53
2023-02-26T11:26:08.934Z,77513.31
2023-02-26T11:28:43.117Z,77509.25
2023-02-26T11:31:12.259Z,77521.44
2023-02-26T11:34:00.275Z,77533.59
2023-02-26T11:36:29.896Z,77517.38
2023-02-26T11:39:33.452Z,77521.44
2023-02-26T11:42:02.638Z,77527.50
2023-02-26T11:44:42.061Z,77513.31
2023-02-26T11:47:16.810Z,77529.53
2023-02-26T11:50:10.779Z,77541.72
2023-02-26T11:52:43.223Z,77549.81
2023-02-26T11:55:33.004Z,77566.03
2023-02-26T11:58:00.578Z,77582.25
2023-02-26T12:00:40.143Z,77590.38
2023-02-26T12:03:15.797Z,77606.59
2023-02-26T12:05:45.739Z,77614.69
2023-02-26T12:08:42.348Z,77614.69
2023-02-26T12:11:11.924Z,77614.69
2023-02-26T12:14:10.408Z,77614.69
2023-02-26T12:17:07.871Z,77624.84
2023-02-26T12:19:46.352Z,77626.88
2023-02-26T12:22:32.555Z,77626.88
2023-02-26T12:25:02.374Z,77624.84
2023-02-26T12:27:59.320Z,77618.75
2023-02-26T12:30:45.014Z,77598.47
2023-02-26T12:33:32.916Z,77594.44
2023-02-26T12:36:28.278Z,77580.22
2023-02-26T12:39:20.953Z,77557.94
2023-02-26T12:42:24.563Z,77553.88
2023-02-26T12:45:50.804Z,77574.16
2023-02-26T12:48:40.569Z,77584.28
2023-02-26T12:51:29.190Z,77582.25
2023-02-26T12:54:16.500Z,77592.41
2023-02-26T12:57:13.164Z,77594.44
2023-02-26T13:00:05.328Z,77590.38
2023-02-26T13:02:48.047Z,77586.31
2023-02-26T13:05:39.493Z,77590.38
2023-02-26T13:08:33.505Z,77590.38
2023-02-26T13:11:29.455Z,77586.31
2023-02-26T13:14:26.076Z,77582.25
2023-02-26T13:17:02.530Z,77566.03
2023-02-26T13:19:50.013Z,77561.97
2023-02-26T13:22:34.300Z,77578.22
2023-02-26T13:25:07.083Z,77586.31
2023-02-26T13:27:38.759Z,77588.34
2023-02-26T13:30:18.759Z,77594.44
2023-02-26T13:32:50.118Z,77598.47
2023-02-26T13:35:22.382Z,77606.59
2023-02-26T13:37:53.119Z,77614.69
2023-02-26T13:40:43.404Z,77608.63
2023-02-26T13:43:26.540Z,77610.66
2023-02-26T13:46:02.145Z,77590.38
2023-02-26T13:48:43.614Z,77586.31
2023-02-26T13:51:30.789Z,77586.31
2023-02-26T13:54:02.271Z,77586.31
2023-02-26T13:56:32.779Z,77578.22
2023-02-26T13:59:24.370Z,77590.38
2023-02-26T14:02:03.078Z,77590.38
2023-02-26T14:04:51.678Z,77594.44
2023-02-26T14:07:57.254Z,77586.31
2023-02-26T14:10:43.705Z,77576.19
2023-02-26T14:13:20.054Z,77574.16
2023-02-26T14:16:11.260Z,77561.97
2023-02-26T14:18:47.697Z,77578.22
2023-02-26T14:21:27.193Z,77586.31
2023-02-26T14:24:00.212Z,77586.31
2023-02-26T14:26:32.396Z,77578.22
2023-02-26T14:29:05.912Z,77580.22
2023-02-26T14:32:03.235Z,77580.22
2023-02-26T14:34:37.521Z,77590.38
2023-02-26T14:37:08.781Z,77586.31
2023-02-26T14:39:40.306Z,77602.53
2023-02-26T14:42:14.610Z,77598.47
2023-02-26T14:44:51.409Z,77608.63
2023-02-26T14:47:18.999Z,77618.75
2023-02-26T14:49:49.538Z,77626.88
2023-02-26T14:53:03.269Z,77622.81
2023-02-26T14:55:39.538Z,77630.94
2023-02-26T14:58:36.059Z,77626.88
2023-02-26T15:01:20.727Z,77643.09
2023-02-26T15:04:24.195Z,77649.19
2023-02-26T15:07:11.741Z,77647.16
2023-02-26T15:09:56.685Z,77647.16
2023-02-26T15:12:26.822Z,77651.19
2023-02-26T15:15:14.900Z,77657.28
2023-02-26T15:18:05.450Z,77661.34
2023-02-26T15:20:59.982Z,77671.47
2023-02-26T15:23:47.669Z,77675.53
2023-02-26T15:26:29.748Z,77671.47
2023-02-26T15:28:59.714Z,77671.47
2023-02-26T15:31:43.973Z,77667.44
2023-02-26T15:34:13.291Z,77675.53
2023-02-26T15:36:45.325Z,77679.59
2023-02-26T15:39:16.046Z,77689.72
2023-02-26T15:41:44.865Z,77699.88
2023-02-26T15:44:22.609Z,77703.94
2023-02-26T15:46:55.230Z,77712.03
2023-02-26T15:49:44.426Z,77716.09
2023-02-26T15:52:17.825Z,77724.19
2023-02-26T15:54:52.322Z,77732.31
2023-02-26T15:57:20.606Z,77736.38
2023-02-26T15:59:52.593Z,77744.47
2023-02-26T16:02:27.411Z,77748.53
2023-02-26T16:04:55.436Z,77746.50
2023-02-26T16:07:22.958Z,77746.50
2023-02-26T16:09:54.303Z,77752.59
2023-02-26T16:12:38.900Z,77762.72
2023-02-26T16:15:28.609Z,77760.69
2023-02-26T16:17:56.882Z,77760.69
2023-02-26T16:20:27.807Z,77776.94
2023-02-26T16:23:02.695Z,77766.78
2023-02-26T16:25:36.913Z,77772.88
2023-02-26T16:28:07.961Z,77778.94
2023-02-26T16:30:37.995Z,77772.88
2023-02-26T16:33:12.068Z,77793.16
2023-02-26T16:35:44.992Z,77799.22
2023-02-26T16:38:25.725Z,77809.38
2023-02-26T16:41:23.299Z,77813.44
2023-02-26T16:43:56.947Z,77819.50
2023-02-26T16:46:42.937Z,77829.66
2023-02-26T16:49:24.864Z,77829.66
2023-02-26T16:51:54.311Z,77837.75
2023-02-26T16:54:31.833Z,77837.75
2023-02-26T16:57:05.454Z,77841.81
2023-02-26T16:59:36.573Z,77839.78
2023-02-26T17:02:18.531Z,77833.69
2023-02-26T17:04:50.548Z,77845.88
2023-02-26T17:07:25.436Z,77849.94
2023-02-26T17:09:56.532Z,77853.97
2023-02-26T17:12:40.393Z,77845.88
2023-02-26T17:15:18.059Z,77843.84
2023-02-26T17:17:45.362Z,77841.81
2023-02-26T17:20:12.813Z,77841.81
2023-02-26T17:22:43.833Z,77849.94
2023-02-26T17:25:16.647Z,77845.88
2023-02-26T17:27:46.115Z,77849.94
2023-02-26T17:30:17.626Z,77845.88
2023-02-26T17:32:45.076Z,77845.88
2023-02-26T17:35:14.177Z,77845.88
2023-02-26T17:37:43.120Z,77853.97
2023-02-26T17:40:24.641Z,77849.94
2023-02-26T17:42:52.815Z,77856.00
2023-02-26T17:45:21.131Z,77858.03
2023-02-26T17:47:50.136Z,77851.97
2023-02-26T17:50:50.165Z,77866.16
2023-02-26T17:53:20.184Z,77870.22
2023-02-26T17:55:49.513Z,77866.16
2023-02-26T17:58:28.673Z,77872.22
2023-02-26T18:00:56.159Z,77870.22
2023-02-26T18:03:23.752Z,77874.25
2023-02-26T18:05:53.098Z,77874.25
2023-02-26T18:08:29.408Z,77880.34
2023-02-26T18:10:58.046Z,77878.31
2023-02-26T18:13:26.397Z,77870.22
2023-02-26T18:15:56.512Z,77878.31
2023-02-26T18:18:25.950Z,77880.34
2023-02-26T18:20:53.506Z,77886.44
2023-02-26T18:23:21.988Z,77894.53
2023-02-26T18:25:51.066Z,77898.59
2023-02-26T18:28:23.927Z,77886.44
2023-02-26T18:30:52.642Z,77890.47
2023-02-26T18:33:21.328Z,77886.44
2023-02-26T18:35:56.215Z,77894.53
2023-02-26T18:38:27.571Z,77886.44
2023-02-26T18:40:56.337Z,77894.53
2023-02-26T18:43:23.897Z,77898.59
2023-02-26T18:45:52.486Z,77902.66
2023-02-26T18:48:21.653Z,77910.75
2023-02-26T18:50:49.218Z,77906.72
2023-02-26T18:53:17.782Z,77902.66
2023-02-26T18:55:44.894Z,77910.75
2023-02-26T18:58:12.598Z,77910.75
2023-02-26T19:00:40.235Z,77906.72
2023-02-26T19:03:09.341Z,77916.84
2023-02-26T19:05:37.342Z,77931.03
2023-02-26T19:08:05.799Z,77922.94
2023-02-26T19:10:34.384Z,77931.03
2023-02-26T19:13:02.244Z,77937.13
2023-02-26T19:15:29.693Z,77939.16
2023-02-26T19:17:56.911Z,77941.19
2023-02-26T19:20:23.892Z,77943.22
2023-02-26T19:22:51.303Z,77941.19
2023-02-26T19:25:24.074Z,77951.31
2023-02-26T19:27:53.743Z,77947.25
2023-02-26T19:30:22.592Z,77947.25
2023-02-26T19:32:51.045Z,77943.22
2023-02-26T19:35:19.632Z,77945.25
2023-02-26T19:37:47.418Z,77951.31
2023-02-26T19:40:19.774Z,77955.38
2023-02-26T19:42:47.985Z,77951.31
2023-02-26T19:45:15.868Z,77959.44
2023-02-26T19:47:43.788Z,77953.34
2023-02-26T19:50:11.954Z,77955.38
2023-02-26T19:52:39.263Z,77957.41
2023-02-26T19:55:07.994Z,77957.41
2023-02-26T19:57:35.457Z,77967.53
2023-02-26T20:00:05.319Z,77987.81
2023-02-26T20:02:39.642Z,77975.66
2023-02-26T20:05:08.394Z,77977.69
2023-02-26T20:07:36.273Z,77979.72
2023-02-26T20:10:04.171Z,77991.88
2023-02-26T20:12:31.807Z,77991.88
2023-02-26T20:14:59.189Z,77987.81
2023-02-26T20:17:26.852Z,77993.91
2023-02-26T20:19:53.937Z,78000.00
2023-02-26T20:22:22.933Z,77979.72
2023-02-26T20:24:50.060Z,77983.75
2023-02-26T20:27:17.423Z,77975.66
2023-02-26T20:29:44.982Z,77983.75
2023-02-26T20:32:12.783Z,77991.88
2023-02-26T20:34:40.528Z,77995.94
2023-02-26T20:37:08.071Z,78024.31
2023-02-26T20:39:34.924Z,77995.94
2023-02-26T20:42:02.203Z,78000.00
2023-02-26T20:44:29.687Z,78004.03
2023-02-26T20:46:57.187Z,77995.94
2023-02-26T20:49:25.619Z,78000.00
2023-02-26T20:51:53.452Z,77997.97
2023-02-26T20:54:22.838Z,78006.06
2023-02-26T20:56:50.929Z,78000.00
2023-02-26T20:59:18.530Z,78000.00
2023-02-26T21:01:47.870Z,78002.00
2023-02-26T21:04:14.870Z,78004.03
2023-02-26T21:06:42.661Z,78000.00
2023-02-26T21:09:11.209Z,78000.00
2023-02-26T21:11:39.805Z,78008.09
2023-02-26T21:14:08.242Z,78004.03
2023-02-26T21:16:40.033Z,78020.28
2023-02-26T21:19:07.941Z,78024.31
2023-02-26T21:21:35.365Z,78022.28
2023-02-26T21:24:02.836Z,78012.16
2023-02-26T21:26:30.039Z,78024.31
2023-02-26T21:28:57.391Z,78026.34
2023-02-26T21:31:24.696Z,78036.50
2023-02-26T21:33:51.776Z,78046.63
2023-02-26T21:36:19.582Z,78046.63
2023-02-26T21:38:46.946Z,78048.66
2023-02-26T21:41:15.209Z,78044.59
2023-02-26T21:43:42.304Z,78052.72
2023-02-26T21:46:10.171Z,78056.78
2023-02-26T21:48:37.586Z,78048.66
2023-02-26T21:51:05.621Z,78060.81
2023-02-26T21:53:33.123Z,78052.72
2023-02-26T21:56:00.612Z,78060.81
2023-02-26T21:58:28.306Z,78064.88
2023-02-26T22:00:59.341Z,78079.09
2023-02-26T22:03:27.048Z,78073.00
2023-02-26T22:05:54.550Z,78075.03
2023-02-26T22:08:23.276Z,78075.03
2023-02-26T22:10:50.521Z,78077.06
2023-02-26T22:13:18.238Z,78081.09
2023-02-26T22:15:46.504Z,78089.22
2023-02-26T22:18:13.772Z,78087.19
2023-02-26T22:20:40.965Z,78093.28
2023-02-26T22:23:08.001Z,78105.44
2023-02-26T22:25:35.225Z,78095.31
2023-02-26T22:28:02.199Z,78103.41
2023-02-26T22:30:29.752Z,78097.34
2023-02-26T22:32:56.968Z,78105.44
2023-02-26T22:35:24.372Z,78101.38
2023-02-26T22:37:51.261Z,78109.50
2023-02-26T22:40:18.826Z,78107.47
2023-02-26T22:42:45.953Z,78125.72
2023-02-26T22:45:17.278Z,78143.97
2023-02-26T22:47:45.622Z,78129.78
2023-02-26T22:50:15.120Z,78129.78
2023-02-26T22:52:43.087Z,78127.75
2023-02-26T22:55:11.790Z,78135.88
2023-02-26T22:57:38.779Z,78125.72
2023-02-26T23:00:11.361Z,78133.84
2023-02-26T23:02:39.049Z,78141.94
2023-02-26T23:05:08.126Z,78150.06
2023-02-26T23:07:36.349Z,78146.00
2023-02-26T23:10:05.159Z,78148.03
2023-02-26T23:12:32.694Z,78150.06
2023-02-26T23:15:00.543Z,78148.03
2023-02-26T23:17:27.918Z,78146.00
2023-02-26T23:19:55.067Z,78141.94
2023-02-26T23:22:22.452Z,78141.94
2023-02-26T23:24:49.963Z,78154.13
2023-02-26T23:27:17.485Z,78154.13
2023-02-26T23:29:45.928Z,78148.03
2023-02-26T23:32:14.399Z,78129.78
2023-02-26T23:34:41.719Z,78137.91
2023-02-26T23:37:08.822Z,78141.94
2023-02-26T23:39:36.975Z,78141.94
2023-02-26T23:42:04.391Z,78141.94
2023-02-26T23:44:31.903Z,78154.13
2023-02-26T23:46:59.698Z,78150.06
2023-02-26T23:49:27.118Z,78154.13
2023-02-26T23:51:54.283Z,78154.13
2023-02-26T23:54:21.444Z,78150.06
2023-02-26T23:56:48.691Z,78150.06
2023-02-26T23:59:17.976Z,78154.13
